Time;durP1;ratioP1;P1;durP2;ratioP2;P2;SDS_P1;SDS_P2;PMS_P1;PMS_P2;Temp;Humidity;BMP_temperature;BMP_pressure;BME280_temperature;BME280_humidity;BME280_pressure;Samples;Min_cycle;Max_cycle;Signal;HPM_P1;HPM_P2
2022/04/29 00:00:41;;;;;;;20.88;10.50;;;;;;;3.81;100.00;102719.59;5054671;28;20060;-80
2022/04/29 00:03:08;;;;;;;20.27;10.50;;;;;;;3.74;100.00;102716.38;5068470;28;20446;-80
2022/04/29 00:05:35;;;;;;;18.63;10.50;;;;;;;3.70;100.00;102722.78;5034266;28;20103;-79
2022/04/29 00:08:05;;;;;;;19.30;10.10;;;;;;;3.68;100.00;102729.19;5070766;28;20111;-81
2022/04/29 00:10:31;;;;;;;19.95;9.88;;;;;;;3.62;100.00;102721.50;5067011;28;20043;-86
2022/04/29 00:12:59;;;;;;;25.23;10.80;;;;;;;3.55;100.00;102715.66;5052488;28;20105;-80
2022/04/29 00:15:25;;;;;;;22.33;10.27;;;;;;;3.47;100.00;102716.06;5052929;28;20032;-82
2022/04/29 00:17:51;;;;;;;21.85;10.45;;;;;;;3.45;100.00;102723.25;5067721;28;20375;-80
2022/04/29 00:20:16;;;;;;;21.20;11.00;;;;;;;3.37;100.00;102706.84;5067805;28;20448;-79
2022/04/29 00:22:44;;;;;;;23.05;10.85;;;;;;;3.32;100.00;102722.19;5053217;28;20046;-80
2022/04/29 00:25:10;;;;;;;22.33;11.05;;;;;;;3.23;100.00;102707.59;5071492;28;20024;-80
2022/04/29 00:27:36;;;;;;;23.40;10.57;;;;;;;3.16;100.00;102714.16;5067583;28;20036;-84
2022/04/29 00:30:04;;;;;;;18.83;9.32;;;;;;;3.09;100.00;102707.44;5037962;28;20029;-80
2022/04/29 00:32:29;;;;;;;18.67;10.10;;;;;;;3.02;100.00;102706.06;5069963;28;20671;-80
2022/04/29 00:34:55;;;;;;;22.40;10.88;;;;;;;2.95;100.00;102712.59;5052054;28;20432;-81
2022/04/29 00:37:21;;;;;;;21.42;10.23;;;;;;;2.92;100.00;102707.47;5037507;28;20535;-81
2022/04/29 00:39:46;;;;;;;18.65;10.63;;;;;;;2.96;100.00;102698.38;5034234;28;20036;-86
2022/04/29 00:42:17;;;;;;;24.83;11.88;;;;;;;3.00;100.00;102690.16;5040934;28;20058;-78
2022/04/29 00:44:43;;;;;;;19.23;10.02;;;;;;;3.02;100.00;102698.94;5093196;28;20025;-78
2022/04/29 00:47:12;;;;;;;23.70;11.38;;;;;;;3.15;100.00;102695.63;5094278;28;20025;-79
2022/04/29 00:49:37;;;;;;;21.88;11.50;;;;;;;3.28;100.00;102700.25;5095753;28;20070;-79
2022/04/29 00:52:06;;;;;;;24.20;11.65;;;;;;;3.34;100.00;102701.72;5099426;28;20005;-78
2022/04/29 00:54:36;;;;;;;32.63;14.05;;;;;;;3.37;100.00;102698.03;5093001;28;20053;-79
2022/04/29 00:57:06;;;;;;;39.20;13.68;;;;;;;3.67;100.00;102692.84;5062069;28;20150;-80
2022/04/29 00:59:57;;;;;;;36.80;15.25;;;;;;;3.97;100.00;102706.28;5073584;28;20404;-81
2022/04/29 01:02:23;;;;;;;36.75;15.10;;;;;;;4.13;100.00;102698.31;5033229;28;20028;-81
2022/04/29 01:04:55;;;;;;;26.58;11.93;;;;;;;4.34;100.00;102701.53;5069975;28;20366;-81
2022/04/29 01:07:22;;;;;;;35.72;15.63;;;;;;;4.47;100.00;102696.38;5067577;28;20025;-79
2022/04/29 01:09:48;;;;;;;49.83;15.73;;;;;;;4.42;100.00;102688.66;5065858;28;20028;-83
2022/04/29 01:12:14;;;;;;;41.15;14.50;;;;;;;4.43;100.00;102694.84;5071785;28;20485;-80
2022/04/29 01:14:40;;;;;;;36.25;15.63;;;;;;;4.45;100.00;102699.13;5068361;28;20040;-81
2022/04/29 01:17:06;;;;;;;44.72;17.05;;;;;;;4.26;100.00;102683.34;5035052;28;20051;-79
2022/04/29 01:19:31;;;;;;;41.35;15.30;;;;;;;4.31;100.00;102688.41;5067715;28;20028;-87
2022/04/29 01:22:01;;;;;;;23.90;10.93;;;;;;;4.24;100.00;102690.56;5034297;28;20470;-79
2022/04/29 01:24:26;;;;;;;26.05;11.80;;;;;;;4.09;100.00;102681.63;5052742;28;20369;-79
2022/04/29 01:26:52;;;;;;;32.58;13.95;;;;;;;3.93;100.00;102686.09;5070316;28;20040;-86
2022/04/29 01:29:18;;;;;;;31.00;14.57;;;;;;;3.73;100.00;102684.53;5037953;28;20588;-79
2022/04/29 01:31:45;;;;;;;30.05;12.38;;;;;;;3.56;100.00;102666.84;5031425;28;20556;-81
2022/04/29 01:34:11;;;;;;;31.13;12.25;;;;;;;3.47;100.00;102657.56;5050592;28;20024;-80
2022/04/29 01:36:36;;;;;;;12.93;4.68;;;;;;;3.49;100.00;102665.44;5034219;28;20039;-83
2022/04/29 01:39:02;;;;;;;32.53;12.45;;;;;;;3.44;100.00;102671.03;5050438;28;20482;-80
2022/04/29 01:41:27;;;;;;;32.30;13.70;;;;;;;3.44;100.00;102678.13;5069868;28;20033;-78
2022/04/29 01:43:53;;;;;;;33.13;12.63;;;;;;;3.46;100.00;102674.44;5058899;28;20028;-83
2022/04/29 01:46:19;;;;;;;33.38;13.88;;;;;;;3.51;100.00;102668.88;5033351;28;20025;-84
2022/04/29 01:48:44;;;;;;;30.90;14.38;;;;;;;3.48;100.00;102661.06;5084721;28;20108;-80
2022/04/29 01:51:10;;;;;;;35.55;14.48;;;;;;;3.50;100.00;102669.84;5066322;28;20397;-79
2022/04/29 01:53:35;;;;;;;37.17;14.65;;;;;;;3.38;100.00;102647.41;5052312;28;20052;-79
2022/04/29 01:56:01;;;;;;;48.72;16.63;;;;;;;3.57;100.00;102670.34;5067168;28;20119;-79
2022/04/29 01:58:26;;;;;;;42.03;14.90;;;;;;;3.65;100.00;102679.66;5032032;28;20032;-81
2022/04/29 02:00:52;;;;;;;39.75;16.33;;;;;;;3.77;100.00;102679.91;5045039;28;20070;-78
2022/04/29 02:03:18;;;;;;;44.78;16.60;;;;;;;3.95;100.00;102673.56;5033614;28;20405;-80
2022/04/29 02:05:44;;;;;;;39.92;15.18;;;;;;;4.08;100.00;102668.44;5048226;28;20377;-80
2022/04/29 02:08:09;;;;;;;40.47;13.77;;;;;;;4.10;100.00;102670.06;5068677;28;20086;-80
2022/04/29 02:10:36;;;;;;;35.65;15.63;;;;;;;4.03;100.00;102678.47;5051738;28;20041;-78
2022/04/29 02:13:01;;;;;;;35.58;15.00;;;;;;;3.79;100.00;102656.75;5032761;28;20470;-84
2022/04/29 02:15:27;;;;;;;8.98;4.32;;;;;;;3.65;100.00;102665.47;5068250;28;20032;-81
2022/04/29 02:17:53;;;;;;;28.55;13.35;;;;;;;3.61;100.00;102666.59;5049436;28;20085;-85
2022/04/29 02:20:18;;;;;;;36.50;14.23;;;;;;;3.49;100.00;102666.31;5038231;28;20029;-83
2022/04/29 02:22:44;;;;;;;45.15;15.43;;;;;;;3.40;100.00;102668.59;5048208;28;20493;-83
2022/04/29 02:25:10;;;;;;;37.45;14.90;;;;;;;3.44;100.00;102678.13;5065290;28;20481;-87
2022/04/29 02:27:37;;;;;;;31.90;13.35;;;;;;;3.41;100.00;102681.81;5065670;28;20351;-84
2022/04/29 02:30:04;;;;;;;37.88;13.07;;;;;;;3.41;100.00;102681.81;5051251;28;20374;-81
2022/04/29 02:32:30;;;;;;;43.45;14.88;;;;;;;3.36;100.00;102685.66;5071360;28;20055;-86
2022/04/29 02:34:56;;;;;;;34.85;14.70;;;;;;;3.25;100.00;102675.59;5051971;28;20040;-82
2022/04/29 02:37:22;;;;;;;38.90;14.18;;;;;;;3.24;100.00;102677.41;5069376;28;20040;-82
2022/04/29 02:39:47;;;;;;;33.53;13.48;;;;;;;3.15;100.00;102677.00;5049094;28;20040;-81
2022/04/29 02:42:13;;;;;;;31.13;12.57;;;;;;;3.04;100.00;102673.16;5074171;28;20035;-80
2022/04/29 02:44:38;;;;;;;34.10;13.93;;;;;;;2.90;100.00;102674.78;5039566;28;20136;-80
2022/04/29 02:47:07;;;;;;;38.55;13.05;;;;;;;2.75;100.00;102674.66;5054456;28;20032;-82
2022/04/29 02:49:35;;;;;;;27.98;11.40;;;;;;;2.67;100.00;102682.09;5066710;28;20035;-82
2022/04/29 02:52:00;;;;;;;35.90;12.77;;;;;;;2.62;100.00;102684.16;5050716;28;20493;-81
2022/04/29 02:54:26;;;;;;;38.50;11.70;;;;;;;2.54;100.00;102683.66;5054348;28;20283;-80
2022/04/29 02:56:52;;;;;;;33.28;13.32;;;;;;;2.20;100.00;102649.03;5066536;28;20390;-81
2022/04/29 02:59:18;;;;;;;35.10;13.43;;;;;;;2.26;100.00;102674.41;5052331;28;20421;-81
2022/04/29 03:01:44;;;;;;;28.95;13.65;;;;;;;2.23;100.00;102679.88;5066200;28;20123;-82
2022/04/29 03:04:10;;;;;;;28.85;12.25;;;;;;;2.20;100.00;102672.94;5072568;28;20028;-80
2022/04/29 03:06:35;;;;;;;28.08;10.20;;;;;;;2.25;100.00;102675.38;5039039;28;20103;-85
2022/04/29 03:09:01;;;;;;;14.52;5.07;;;;;;;2.29;100.00;102666.31;5072849;28;20036;-80
2022/04/29 03:11:26;;;;;;;34.50;13.23;;;;;;;2.34;100.00;102660.78;5051795;28;20406;-83
2022/04/29 03:13:52;;;;;;;31.33;11.90;;;;;;;2.33;100.00;102659.03;5053077;28;20051;-83
2022/04/29 03:16:17;;;;;;;29.65;12.82;;;;;;;2.42;100.00;102670.06;5071646;28;20069;-79
2022/04/29 03:18:44;;;;;;;37.38;12.57;;;;;;;2.41;100.00;102665.72;5074802;28;20366;-80
2022/04/29 03:21:10;;;;;;;31.52;13.50;;;;;;;2.34;100.00;102661.63;5070061;28;20029;-84
2022/04/29 03:23:36;;;;;;;29.48;11.82;;;;;;;2.29;100.00;102657.47;5051082;28;20394;-78
2022/04/29 03:26:04;;;;;;;31.48;11.90;;;;;;;2.13;100.00;102655.56;5053545;28;20044;-82
2022/04/29 03:28:30;;;;;;;33.30;12.30;;;;;;;2.04;100.00;102649.84;5070904;28;20094;-81
2022/04/29 03:30:56;;;;;;;30.70;11.85;;;;;;;1.99;100.00;102652.75;5052074;28;20308;-81
2022/04/29 03:33:21;;;;;;;28.48;11.63;;;;;;;1.97;100.00;102651.94;5062642;28;20068;-82
2022/04/29 03:35:50;;;;;;;27.92;11.20;;;;;;;1.89;100.00;102654.09;5072286;28;20024;-81
2022/04/29 03:38:15;;;;;;;31.35;12.18;;;;;;;1.79;100.00;102644.84;5069028;28;21297;-87
2022/04/29 03:40:41;;;;;;;31.85;12.85;;;;;;;1.71;100.00;102653.16;5055363;28;20033;-86
2022/04/29 03:43:07;;;;;;;23.20;11.40;;;;;;;1.63;100.00;102653.53;5070111;28;20072;-82
2022/04/29 03:45:33;;;;;;;31.45;12.40;;;;;;;1.57;100.00;102664.44;5052792;28;20047;-84
2022/04/29 03:47:58;;;;;;;25.67;11.40;;;;;;;1.58;100.00;102671.44;5066904;28;20040;-81
2022/04/29 03:50:25;;;;;;;32.58;11.57;;;;;;;1.64;100.00;102665.88;5049526;28;20029;-83
2022/04/29 03:52:56;;;;;;;29.13;12.07;;;;;;;1.69;100.00;102671.81;5052187;28;20036;-79
2022/04/29 03:55:25;;;;;;;28.52;10.88;;;;;;;1.71;100.00;102666.44;5067345;28;20044;-86
2022/04/29 03:57:53;;;;;;;28.35;11.02;;;;;;;1.62;100.00;102664.22;5068795;28;20028;-81
2022/04/29 04:00:19;;;;;;;32.20;13.50;;;;;;;1.56;100.00;102665.34;5071766;28;20485;-83
2022/04/29 04:02:45;;;;;;;25.40;11.10;;;;;;;1.47;100.00;102666.63;5070899;28;20060;-85
2022/04/29 04:05:13;;;;;;;32.05;12.63;;;;;;;1.42;100.00;102654.53;5036242;28;20489;-81
2022/04/29 04:07:39;;;;;;;28.48;11.18;;;;;;;1.49;100.00;102669.22;5036448;28;20062;-81
2022/04/29 04:10:05;;;;;;;25.48;11.15;;;;;;;1.51;100.00;102673.53;5071021;28;20483;-82
2022/04/29 04:12:46;;;;;;;32.80;11.18;;;;;;;1.46;100.00;102669.38;5071308;28;20039;-80
2022/04/29 04:15:13;;;;;;;30.60;11.57;;;;;;;1.44;100.00;102671.22;5066939;28;20029;-80
2022/04/29 04:17:39;;;;;;;33.33;10.90;;;;;;;1.47;100.00;102671.94;5053443;28;20124;-86
2022/04/29 04:20:06;;;;;;;31.50;11.27;;;;;;;1.47;100.00;102663.13;5052648;28;20036;-79
2022/04/29 04:22:35;;;;;;;28.25;11.88;;;;;;;1.44;100.00;102664.13;5069051;28;20033;-79
2022/04/29 04:25:05;;;;;;;40.25;12.52;;;;;;;1.43;100.00;102665.06;5069358;28;20033;-82
2022/04/29 04:27:31;;;;;;;30.63;12.00;;;;;;;1.36;100.00;102652.16;5034926;28;20043;-80
2022/04/29 04:30:00;;;;;;;27.80;10.40;;;;;;;1.40;100.00;102664.31;5069644;28;20413;-79
2022/04/29 04:32:27;;;;;;;30.80;11.60;;;;;;;1.34;100.00;102648.72;5034208;28;20056;-85
2022/04/29 04:34:54;;;;;;;38.72;11.98;;;;;;;1.36;100.00;102652.16;5070061;28;20543;-80
2022/04/29 04:37:21;;;;;;;29.83;11.23;;;;;;;1.43;100.00;102656.22;5050629;28;20028;-80
2022/04/29 04:39:58;;;;;;;;;;;;;;;;;;;;;
2022/04/29 04:42:24;;;;;;;32.40;11.57;;;;;;;1.28;100.00;102636.59;5065365;28;20036;-81
2022/04/29 04:44:56;;;;;;;35.40;12.98;;;;;;;1.34;100.00;102654.88;5066521;28;20032;-82
2022/04/29 04:47:21;;;;;;;33.85;11.70;;;;;;;1.28;100.00;102639.25;5040084;28;20040;-83
2022/04/29 04:49:47;;;;;;;35.90;12.23;;;;;;;1.38;100.00;102652.97;5051378;28;20107;-82
2022/04/29 04:52:13;;;;;;;29.73;11.30;;;;;;;1.39;100.00;102644.06;5052073;28;20108;-81
2022/04/29 04:54:38;;;;;;;37.17;13.13;;;;;;;1.33;100.00;102629.31;5026801;28;20033;-80
2022/04/29 04:57:05;;;;;;;29.23;11.85;;;;;;;1.43;100.00;102650.94;5052505;28;20029;-81
2022/04/29 04:59:31;;;;;;;41.75;13.18;;;;;;;1.50;100.00;102657.69;5039780;28;20032;-81
2022/04/29 05:01:56;;;;;;;33.03;11.48;;;;;;;1.50;100.00;102649.72;5035855;28;20478;-84
2022/04/29 05:04:22;;;;;;;31.50;12.38;;;;;;;1.36;100.00;102630.97;5049997;28;20063;-79
2022/04/29 05:06:48;;;;;;;30.55;12.30;;;;;;;1.49;100.00;102651.53;5065715;28;20032;-82
2022/04/29 05:09:13;;;;;;;33.80;10.35;;;;;;;1.37;100.00;102640.63;5050484;28;20028;-81
2022/04/29 05:11:39;;;;;;;27.13;10.70;;;;;;;1.45;100.00;102659.69;5042218;28;20136;-81
2022/04/29 05:14:05;;;;;;;31.40;11.13;;;;;;;1.46;100.00;102661.41;5062903;28;20106;-82
2022/04/29 05:16:31;;;;;;;34.10;11.48;;;;;;;1.51;100.00;102665.56;5037214;28;20071;-80
2022/04/29 05:18:56;;;;;;;40.15;13.02;;;;;;;1.67;100.00;102665.72;5069097;28;20032;-80
2022/04/29 05:21:22;;;;;;;32.30;12.40;;;;;;;1.92;100.00;102667.22;5054354;28;20024;-83
2022/04/29 05:23:47;;;;;;;34.35;11.98;;;;;;;2.15;100.00;102664.31;5050730;28;20036;-80
2022/04/29 05:26:13;;;;;;;30.75;12.25;;;;;;;2.35;100.00;102638.59;5048959;28;20044;-83
2022/04/29 05:28:39;;;;;;;40.58;13.60;;;;;;;2.86;100.00;102671.44;5049843;28;20036;-80
2022/04/29 05:31:05;;;;;;;38.92;12.65;;;;;;;3.02;100.00;102669.69;5067173;28;20477;-81
2022/04/29 05:33:31;;;;;;;41.92;14.10;;;;;;;3.02;100.00;102656.41;5065309;28;20106;-80
2022/04/29 05:35:58;;;;;;;41.00;14.73;;;;;;;3.15;100.00;102666.38;5057883;28;20141;-80
2022/04/29 05:42:14;;;;;;;47.35;15.20;;;;;;;3.19;100.00;102659.97;5034696;28;20028;-82
2022/04/29 05:43:54;;;;;;;50.08;17.65;;;;;;;3.43;100.00;102679.94;5061546;28;20021;-81
2022/04/29 05:46:19;;;;;;;45.40;15.75;;;;;;;3.54;100.00;102679.34;5052025;28;20458;-79
2022/04/29 05:48:45;;;;;;;47.97;17.48;;;;;;;3.58;100.00;102680.91;5050673;28;20025;-85
2022/04/29 05:51:11;;;;;;;53.65;17.15;;;;;;;3.65;100.00;102674.34;5064258;28;20066;-79
2022/04/29 05:53:36;;;;;;;62.97;18.08;;;;;;;3.87;100.00;102681.97;5052178;28;20086;-82
2022/04/29 05:56:02;;;;;;;58.50;17.40;;;;;;;4.14;100.00;102679.56;5034279;28;20091;-81
2022/04/29 05:58:27;;;;;;;53.35;16.45;;;;;;;4.46;100.00;102690.19;5063343;28;20055;-80
2022/04/29 06:00:53;;;;;;;49.40;16.50;;;;;;;4.61;100.00;102694.63;5029215;28;20036;-80
2022/04/29 06:03:18;;;;;;;63.03;17.25;;;;;;;4.77;100.00;102683.94;5036331;28;20032;-82
2022/04/29 06:05:45;;;;;;;56.38;18.45;;;;;;;4.87;100.00;102694.03;5032648;28;20036;-79
2022/04/29 06:08:10;;;;;;;42.75;15.05;;;;;;;4.99;100.00;102695.97;5041475;28;20059;-82
2022/04/29 06:10:36;;;;;;;47.15;15.73;;;;;;;4.93;100.00;102677.69;5059271;28;20280;-80
2022/04/29 06:13:05;;;;;;;39.10;12.73;;;;;;;5.01;100.00;102694.94;5067771;28;20028;-80
2022/04/29 06:15:31;;;;;;;41.08;15.10;;;;;;;5.04;100.00;102696.56;5063056;28;20031;-83
2022/04/29 06:17:57;;;;;;;46.00;14.88;;;;;;;5.15;100.00;102691.41;5064154;28;20103;-81
2022/04/29 06:20:22;;;;;;;46.53;15.68;;;;;;;5.28;100.00;102688.88;5069329;28;20032;-80
2022/04/29 06:22:48;;;;;;;40.63;16.17;;;;;;;5.39;100.00;102691.72;5043727;28;20040;-81
2022/04/29 06:25:13;;;;;;;45.03;15.65;;;;;;;5.57;100.00;102699.56;5040475;28;20032;-82
2022/04/29 06:27:39;;;;;;;43.75;15.77;;;;;;;5.79;100.00;102699.91;5043717;28;20033;-81
2022/04/29 06:30:05;;;;;;;39.97;14.88;;;;;;;5.97;100.00;102703.25;5033562;28;20047;-80
2022/04/29 06:32:31;;;;;;;34.05;13.80;;;;;;;6.12;100.00;102698.75;5047582;28;20040;-79
2022/04/29 06:34:57;;;;;;;37.53;14.10;;;;;;;6.27;100.00;102704.91;5035714;28;20048;-84
2022/04/29 06:37:22;;;;;;;38.35;15.80;;;;;;;6.33;100.00;102693.84;5066811;28;20370;-80
2022/04/29 06:39:48;;;;;;;38.20;13.15;;;;;;;6.43;100.00;102696.75;5062897;28;20032;-80
2022/04/29 06:42:13;;;;;;;35.70;14.30;;;;;;;6.69;100.00;102713.72;5060469;28;20032;-80
2022/04/29 06:44:39;;;;;;;34.38;13.57;;;;;;;6.95;100.00;102712.81;5058796;28;20038;-80
2022/04/29 06:47:05;;;;;;;29.00;13.93;;;;;;;7.17;100.00;102708.69;5032456;28;20036;-81
2022/04/29 06:49:31;;;;;;;33.53;12.85;;;;;;;7.20;100.00;102687.94;5047774;28;20523;-79
2022/04/29 06:51:57;;;;;;;34.75;12.10;;;;;;;7.44;100.00;102703.25;5049591;28;20028;-82
2022/04/29 06:54:22;;;;;;;30.52;12.60;;;;;;;7.56;100.00;102706.88;5059460;28;20374;-79
2022/04/29 06:56:53;;;;;;;32.80;12.45;;;;;;;7.67;99.51;102707.84;5058570;28;20060;-80
2022/04/29 06:59:19;;;;;;;24.48;11.90;;;;;;;8.00;98.43;102716.22;5064587;28;20485;-80
2022/04/29 07:01:44;;;;;;;30.92;12.75;;;;;;;8.68;95.59;102699.59;5033170;28;20100;-79
2022/04/29 07:04:11;;;;;;;27.42;11.73;;;;;;;9.76;91.84;102704.66;5036199;28;20032;-84
2022/04/29 07:06:37;;;;;;;27.30;12.07;;;;;;;10.31;88.23;102705.56;5067620;28;20119;-79
2022/04/29 07:09:03;;;;;;;26.60;11.60;;;;;;;10.83;85.98;102719.22;5035867;28;20044;-83
2022/04/29 07:11:31;;;;;;;24.88;9.82;;;;;;;11.81;81.85;102714.25;5042503;28;20474;-80
2022/04/29 07:13:57;;;;;;;23.25;10.82;;;;;;;12.46;78.37;102717.44;5056492;28;20031;-80
2022/04/29 07:16:23;;;;;;;24.75;10.90;;;;;;;12.74;76.57;102714.88;5040800;28;20021;-83
2022/04/29 07:18:49;;;;;;;26.58;10.90;;;;;;;13.04;76.43;102713.84;5045053;28;20370;-80
2022/04/29 07:21:15;;;;;;;25.15;11.68;;;;;;;13.11;73.39;102714.16;5048788;28;20035;-79
2022/04/29 07:23:40;;;;;;;25.08;11.35;;;;;;;13.33;73.64;102715.69;5072777;28;20052;-80
2022/04/29 07:26:06;;;;;;;25.52;12.20;;;;;;;13.40;73.88;102712.25;5055897;28;20048;-81
2022/04/29 07:28:31;;;;;;;21.50;10.80;;;;;;;13.22;75.35;102705.88;5048983;28;20037;-80
2022/04/29 07:30:57;;;;;;;18.77;9.60;;;;;;;14.04;69.44;102707.84;5035876;28;20440;-82
2022/04/29 07:33:23;;;;;;;25.08;11.95;;;;;;;14.62;65.32;102716.63;5054717;28;20032;-82
2022/04/29 07:44:02;;;;;;;31.63;14.00;;;;;;;15.50;66.33;102720.16;5057186;28;20032;-82
2022/04/29 07:46:28;;;;;;;29.98;13.40;;;;;;;16.10;62.90;102730.16;5034632;28;20109;-80
2022/04/29 07:48:54;;;;;;;27.52;13.07;;;;;;;16.41;61.61;102735.00;5066976;28;20412;-81
2022/04/29 07:51:19;;;;;;;30.08;14.13;;;;;;;16.48;61.38;102720.59;5039216;28;20086;-80
2022/04/29 07:53:45;;;;;;;31.25;14.20;;;;;;;16.99;60.52;102731.34;5054665;28;20028;-79
2022/04/29 07:56:10;;;;;;;29.90;13.98;;;;;;;17.73;59.77;102737.50;5066474;28;20131;-82
2022/04/29 07:58:36;;;;;;;29.83;11.70;;;;;;;18.52;55.53;102733.91;5071151;28;20477;-79
2022/04/29 08:01:04;;;;;;;17.58;9.05;;;;;;;18.17;51.91;102730.72;5062544;28;20049;-78
2022/04/29 08:03:29;;;;;;;20.60;9.45;;;;;;;17.57;53.73;102729.38;5042942;28;20040;-80
2022/04/29 08:05:55;;;;;;;28.60;14.50;;;;;;;17.32;57.25;102729.44;5051540;28;20035;-82
2022/04/29 08:08:21;;;;;;;17.88;9.75;;;;;;;17.60;54.61;102729.06;5038622;28;22420;-81
2022/04/29 08:10:47;;;;;;;28.50;15.32;;;;;;;17.19;55.23;102734.56;5051354;28;20040;-80
2022/04/29 08:13:12;;;;;;;35.30;15.73;;;;;;;17.27;57.41;102734.53;5065876;28;20233;-85
2022/04/29 08:15:38;;;;;;;32.78;15.57;;;;;;;17.81;54.02;102733.94;5070410;28;20115;-79
2022/04/29 08:18:05;;;;;;;38.28;16.45;;;;;;;18.08;54.20;102738.09;5054254;28;20485;-81
2022/04/29 08:20:31;;;;;;;28.40;14.30;;;;;;;18.43;52.53;102733.97;5067472;28;20036;-82
2022/04/29 08:22:57;;;;;;;36.33;17.10;;;;;;;18.54;51.87;102729.97;5046684;28;20032;-81
2022/04/29 08:25:22;;;;;;;50.10;18.35;;;;;;;18.78;51.29;102723.53;5038575;28;20111;-82
2022/04/29 08:27:50;;;;;;;35.40;17.90;;;;;;;19.29;50.55;102731.97;5078974;28;20103;-81
2022/04/29 08:30:16;;;;;;;29.67;13.45;;;;;;;19.53;47.35;102727.28;5091745;28;20036;-78
2022/04/29 08:32:43;;;;;;;47.40;16.73;;;;;;;19.34;47.23;102728.66;5076416;28;20077;-77
2022/04/29 08:35:12;;;;;;;37.78;17.83;;;;;;;19.22;48.54;102725.53;5074585;28;20028;-79
2022/04/29 08:37:39;;;;;;;45.22;18.35;;;;;;;19.58;48.12;102718.50;5072769;28;20054;-78
2022/04/29 08:40:06;;;;;;;50.63;21.02;;;;;;;20.11;45.72;102721.97;5092210;28;20035;-79
2022/04/29 08:42:37;;;;;;;43.50;17.63;;;;;;;20.70;45.56;102716.34;5080443;28;20058;-78
2022/04/29 08:45:11;;;;;;;43.50;17.90;;;;;;;21.47;41.54;102728.38;5057164;28;20028;-78
2022/04/29 08:47:37;;;;;;;;;;;;;;;21.76;42.17;102721.81;5060850;28;20032;-80
2022/04/29 08:50:06;;;;;;;50.97;25.10;;;;;;;21.94;40.89;102721.25;5036599;28;19960;-78
2022/04/29 08:52:36;;;;;;;44.88;20.15;;;;;;;21.65;41.24;102722.38;5028762;28;20064;-80
2022/04/29 09:00:38;;;;;;;40.22;18.52;;;;;;;20.61;44.51;102721.13;5070352;28;20224;-79
2022/04/29 09:03:06;;;;;;;36.97;18.90;;;;;;;21.23;41.52;102724.16;5067880;28;20036;-79
2022/04/29 09:05:32;;;;;;;37.38;17.83;;;;;;;21.31;40.17;102726.75;5070262;28;20086;-78
2022/04/29 09:08:01;;;;;;;33.55;17.38;;;;;;;21.32;39.93;102708.44;5049046;28;20043;-80
2022/04/29 09:10:35;;;;;;;41.28;19.33;;;;;;;21.60;40.65;102708.44;5067133;28;20032;-79
2022/04/29 09:13:12;;;;;;;37.50;18.75;;;;;;;21.80;39.90;102709.38;5038178;28;20040;-79
2022/04/29 09:15:46;;;;;;;48.90;18.52;;;;;;;22.08;38.61;102714.78;5055111;28;20113;-78
2022/04/29 09:18:11;;;;;;;42.33;19.27;;;;;;;22.88;37.98;102708.63;5049723;28;20111;-80
2022/04/29 09:20:37;;;;;;;40.92;18.65;;;;;;;23.50;36.45;102707.34;5042460;28;20135;-78
2022/04/29 09:23:02;;;;;;;35.58;18.10;;;;;;;23.54;35.61;102715.97;5065709;28;20039;-79
2022/04/29 09:25:35;;;;;;;40.83;20.38;;;;;;;23.07;37.31;102702.31;5062935;28;20017;-80
2022/04/29 09:28:08;;;;;;;50.80;20.63;;;;;;;23.56;36.65;102708.38;5035768;28;20386;-80
2022/04/29 09:30:40;;;;;;;38.97;20.50;;;;;;;24.17;36.56;102707.13;5046762;28;20028;-81
2022/04/29 09:33:20;;;;;;;38.58;19.70;;;;;;;24.65;35.60;102712.13;5029847;28;20036;-79
2022/04/29 09:35:46;;;;;;;40.38;19.30;;;;;;;25.31;33.35;102706.06;5041481;28;20067;-80
2022/04/29 09:40:58;;;;;;;38.97;18.77;;;;;;;25.67;33.21;102715.44;5067534;28;20486;-79
2022/04/29 09:43:34;;;;;;;35.78;18.40;;;;;;;25.65;32.29;102717.56;5035545;28;20086;-79
2022/04/29 09:46:14;;;;;;;38.40;18.70;;;;;;;25.26;33.33;102722.44;5040351;28;20052;-80
2022/04/29 09:48:56;;;;;;;36.65;18.65;;;;;;;25.36;32.72;102717.25;5070409;28;20031;-78
2022/04/29 09:51:51;;;;;;;33.38;18.88;;;;;;;25.67;32.29;102697.00;5040902;28;20486;-79
2022/04/29 09:54:27;;;;;;;31.02;17.33;;;;;;;26.14;31.03;102704.69;5063083;28;20036;-79
2022/04/29 09:57:13;;;;;;;35.45;19.02;;;;;;;26.23;30.93;102711.56;5049458;28;20028;-78
2022/04/29 09:59:43;;;;;;;39.90;17.33;;;;;;;26.70;30.07;102713.63;5051197;28;20028;-77
2022/04/29 10:02:11;;;;;;;33.97;18.15;;;;;;;27.18;29.52;102712.66;5050952;28;20039;-80
2022/04/29 10:04:45;;;;;;;41.05;19.52;;;;;;;27.45;28.85;102717.69;5053459;28;20035;-79
2022/04/29 10:07:13;;;;;;;33.08;16.60;;;;;;;27.07;28.83;102713.44;5034712;28;20504;-76
2022/04/29 10:09:40;;;;;;;31.40;16.85;;;;;;;26.66;29.78;102718.81;5051688;28;20017;-78
2022/04/29 10:12:13;;;;;;;39.60;18.75;;;;;;;26.40;30.78;102720.00;5047636;28;20029;-78
2022/04/29 10:14:40;;;;;;;38.50;18.75;;;;;;;26.78;29.98;102709.69;5036631;28;20062;-76
2022/04/29 10:23:08;;;;;;;28.08;16.42;;;;;;;27.99;27.19;102719.13;5067725;28;20029;-77
2022/04/29 10:25:35;;;;;;;33.25;17.13;;;;;;;27.82;26.90;102726.53;5036398;28;20181;-77
2022/04/29 10:28:01;;;;;;;29.95;17.77;;;;;;;27.27;28.71;102713.13;5045424;28;20131;-81
2022/04/29 10:31:22;;;;;;;29.42;16.52;;;;;;;27.84;28.16;102719.69;5049111;28;20656;-77
2022/04/29 10:33:48;;;;;;;32.38;17.90;;;;;;;28.13;26.98;102716.09;5047427;28;20127;-77
2022/04/29 10:36:14;;;;;;;29.60;16.63;;;;;;;28.01;27.53;102718.91;5063213;28;20251;-81
2022/04/29 10:38:43;;;;;;;33.25;16.77;;;;;;;27.72;27.45;102713.31;5034344;28;20037;-80
2022/04/29 10:41:13;;;;;;;25.83;13.82;;;;;;;27.61;26.28;102712.25;5048832;28;20082;-77
2022/04/29 10:43:51;;;;;;;30.55;15.50;;;;;;;27.12;28.03;102717.16;5070185;28;20028;-81
2022/04/29 10:46:24;;;;;;;26.13;14.35;;;;;;;27.60;27.12;102706.94;5061376;28;20028;-77
2022/04/29 10:48:53;;;;;;;24.42;13.65;;;;;;;27.42;26.47;102707.97;5065621;28;20086;-79
2022/04/29 10:51:24;;;;;;;25.67;13.25;;;;;;;27.13;26.35;102701.47;5057192;28;20040;-79
2022/04/29 10:53:55;;;;;;;21.85;12.63;;;;;;;26.73;26.40;102711.25;5066463;28;20067;-78
2022/04/29 10:56:30;;;;;;;21.55;12.73;;;;;;;27.37;25.85;102708.69;5066514;28;20637;-79
2022/04/29 10:59:11;;;;;;;23.00;12.23;;;;;;;28.25;24.47;102705.81;5066324;28;20044;-78
2022/04/29 11:01:38;;;;;;;24.75;13.90;;;;;;;27.82;25.35;102701.66;5071139;28;20477;-77
2022/04/29 11:04:27;;;;;;;18.42;12.38;;;;;;;27.69;25.99;102707.44;5071995;28;20259;-77
2022/04/29 11:06:53;;;;;;;21.63;13.85;;;;;;;28.24;26.68;102701.38;5073479;28;20040;-79
2022/04/29 11:09:28;;;;;;;25.35;14.55;;;;;;;28.85;24.94;102705.25;5033875;28;20032;-80
2022/04/29 11:11:55;;;;;;;26.13;13.52;;;;;;;28.78;25.10;102700.97;5054898;28;20263;-77
2022/04/29 11:14:21;;;;;;;17.35;10.50;;;;;;;28.88;24.37;102696.44;5072480;28;20032;-77
2022/04/29 11:17:06;;;;;;;21.02;12.20;;;;;;;28.76;25.22;102700.38;5070057;28;20024;-80
2022/04/29 11:19:40;;;;;;;23.58;13.20;;;;;;;28.28;26.19;102702.56;5053136;28;20036;-78
2022/04/29 11:24:54;;;;;;;26.75;13.73;;;;;;;28.45;25.47;102686.88;5072705;28;20043;-78
2022/04/29 11:27:27;;;;;;;26.90;12.65;;;;;;;28.00;26.72;102682.13;5039857;28;20277;-79
2022/04/29 11:29:54;;;;;;;22.15;12.27;;;;;;;29.31;25.21;102694.06;5055467;28;20052;-77
2022/04/29 11:32:24;;;;;;;16.98;10.63;;;;;;;29.87;23.48;102699.53;5065556;28;20020;-78
2022/04/29 11:34:54;;;;;;;18.30;9.65;;;;;;;28.36;24.12;102682.78;5055510;28;20549;-78
2022/04/29 11:37:28;;;;;;;24.67;12.73;;;;;;;25.39;29.56;102681.00;5050702;28;20032;-80
2022/04/29 11:40:00;;;;;;;15.57;10.30;;;;;;;27.26;27.62;102687.44;5036971;28;20036;-78
2022/04/29 11:42:27;;;;;;;21.75;12.40;;;;;;;29.33;24.57;102681.63;5036608;28;20040;-76